sensor_id;sensor_type;location;lat;lon;timestamp;P1;durP1;ratioP1;P2;durP2;ratioP2
19543;SDS011;9917;51.256;7.152;2023-07-02T00:00:19;4.82;;;2.60;;
19543;SDS011;9917;51.256;7.152;2023-07-02T00:02:46;7.07;;;2.30;;
19543;SDS011;9917;51.256;7.152;2023-07-02T00:05:12;7.63;;;2.30;;
19543;SDS011;9917;51.256;7.152;2023-07-02T00:07:38;7.82;;;2.45;;
19543;SDS011;9917;51.256;7.152;2023-07-02T00:10:04;7.05;;;2.72;;
19543;SDS011;9917;51.256;7.152;2023-07-02T00:12:30;6.38;;;2.25;;
19543;SDS011;9917;51.256;7.152;2023-07-02T00:14:57;7.82;;;2.97;;
19543;SDS011;9917;51.256;7.152;2023-07-02T00:17:23;6.15;;;2.80;;
19543;SDS011;9917;51.256;7.152;2023-07-02T00:19:51;4.13;;;2.40;;
19543;SDS011;9917;51.256;7.152;2023-07-02T00:22:16;6.63;;;2.92;;
19543;SDS011;9917;51.256;7.152;2023-07-02T00:24:42;4.95;;;2.38;;
19543;SDS011;9917;51.256;7.152;2023-07-02T00:27:08;6.50;;;2.95;;
19543;SDS011;9917;51.256;7.152;2023-07-02T00:29:34;6.90;;;2.53;;
19543;SDS011;9917;51.256;7.152;2023-07-02T00:32:00;4.60;;;2.60;;
19543;SDS011;9917;51.256;7.152;2023-07-02T00:34:26;6.30;;;2.65;;
19543;SDS011;9917;51.256;7.152;2023-07-02T00:36:53;5.13;;;2.55;;
19543;SDS011;9917;51.256;7.152;2023-07-02T00:39:19;4.82;;;2.55;;
19543;SDS011;9917;51.256;7.152;2023-07-02T00:41:45;4.68;;;2.53;;
19543;SDS011;9917;51.256;7.152;2023-07-02T00:44:10;5.45;;;2.40;;
19543;SDS011;9917;51.256;7.152;2023-07-02T00:46:36;5.57;;;2.97;;
19543;SDS011;9917;51.256;7.152;2023-07-02T00:49:02;4.85;;;2.40;;
19543;SDS011;9917;51.256;7.152;2023-07-02T00:51:30;7.75;;;2.50;;
19543;SDS011;9917;51.256;7.152;2023-07-02T00:53:57;8.40;;;2.63;;
19543;SDS011;9917;51.256;7.152;2023-07-02T00:56:24;4.80;;;2.60;;
19543;SDS011;9917;51.256;7.152;2023-07-02T00:58:51;5.28;;;2.53;;
19543;SDS011;9917;51.256;7.152;2023-07-02T01:01:18;5.43;;;2.75;;
19543;SDS011;9917;51.256;7.152;2023-07-02T01:03:52;6.10;;;2.88;;
19543;SDS011;9917;51.256;7.152;2023-07-02T01:06:18;7.50;;;2.83;;
19543;SDS011;9917;51.256;7.152;2023-07-02T01:08:44;7.40;;;2.80;;
19543;SDS011;9917;51.256;7.152;2023-07-02T01:11:13;5.63;;;2.60;;
19543;SDS011;9917;51.256;7.152;2023-07-02T01:13:39;6.28;;;2.63;;
19543;SDS011;9917;51.256;7.152;2023-07-02T01:16:05;8.25;;;3.30;;
19543;SDS011;9917;51.256;7.152;2023-07-02T01:18:31;6.15;;;3.20;;
19543;SDS011;9917;51.256;7.152;2023-07-02T01:20:58;7.60;;;2.97;;
19543;SDS011;9917;51.256;7.152;2023-07-02T01:23:24;7.97;;;3.10;;
19543;SDS011;9917;51.256;7.152;2023-07-02T01:25:51;5.88;;;2.90;;
19543;SDS011;9917;51.256;7.152;2023-07-02T01:28:17;7.57;;;3.03;;
19543;SDS011;9917;51.256;7.152;2023-07-02T01:30:43;9.95;;;3.80;;
19543;SDS011;9917;51.256;7.152;2023-07-02T01:33:09;7.90;;;3.20;;
19543;SDS011;9917;51.256;7.152;2023-07-02T01:35:34;9.70;;;3.38;;
19543;SDS011;9917;51.256;7.152;2023-07-02T01:38:01;8.98;;;3.65;;
19543;SDS011;9917;51.256;7.152;2023-07-02T01:40:27;7.88;;;3.40;;
19543;SDS011;9917;51.256;7.152;2023-07-02T01:42:53;8.15;;;3.67;;
19543;SDS011;9917;51.256;7.152;2023-07-02T01:45:19;11.05;;;4.10;;
19543;SDS011;9917;51.256;7.152;2023-07-02T01:47:44;10.60;;;4.20;;
19543;SDS011;9917;51.256;7.152;2023-07-02T01:50:10;8.70;;;4.13;;
19543;SDS011;9917;51.256;7.152;2023-07-02T01:52:36;9.98;;;4.65;;
19543;SDS011;9917;51.256;7.152;2023-07-02T01:55:04;9.30;;;4.05;;
19543;SDS011;9917;51.256;7.152;2023-07-02T01:57:30;11.93;;;5.10;;
19543;SDS011;9917;51.256;7.152;2023-07-02T01:59:56;12.50;;;5.15;;
19543;SDS011;9917;51.256;7.152;2023-07-02T02:02:21;12.63;;;5.47;;
19543;SDS011;9917;51.256;7.152;2023-07-02T02:04:47;14.18;;;5.10;;
19543;SDS011;9917;51.256;7.152;2023-07-02T02:07:13;12.75;;;5.63;;
19543;SDS011;9917;51.256;7.152;2023-07-02T02:09:39;9.70;;;5.13;;
19543;SDS011;9917;51.256;7.152;2023-07-02T02:12:09;14.45;;;5.18;;
19543;SDS011;9917;51.256;7.152;2023-07-02T02:14:34;13.57;;;5.68;;
19543;SDS011;9917;51.256;7.152;2023-07-02T02:17:00;11.18;;;5.25;;
19543;SDS011;9917;51.256;7.152;2023-07-02T02:19:26;13.35;;;7.07;;
19543;SDS011;9917;51.256;7.152;2023-07-02T02:21:52;13.77;;;5.63;;
19543;SDS011;9917;51.256;7.152;2023-07-02T02:24:18;16.40;;;6.25;;
19543;SDS011;9917;51.256;7.152;2023-07-02T02:26:44;19.58;;;6.72;;
19543;SDS011;9917;51.256;7.152;2023-07-02T02:29:11;15.75;;;5.90;;
19543;SDS011;9917;51.256;7.152;2023-07-02T02:31:36;13.13;;;6.03;;
19543;SDS011;9917;51.256;7.152;2023-07-02T02:34:03;14.85;;;6.50;;
19543;SDS011;9917;51.256;7.152;2023-07-02T02:36:29;14.18;;;5.80;;
19543;SDS011;9917;51.256;7.152;2023-07-02T02:38:54;18.02;;;6.85;;
19543;SDS011;9917;51.256;7.152;2023-07-02T02:41:20;17.67;;;7.20;;
19543;SDS011;9917;51.256;7.152;2023-07-02T02:43:46;18.08;;;7.18;;
19543;SDS011;9917;51.256;7.152;2023-07-02T02:46:19;15.05;;;7.18;;
19543;SDS011;9917;51.256;7.152;2023-07-02T02:48:45;18.48;;;6.53;;
19543;SDS011;9917;51.256;7.152;2023-07-02T02:51:10;18.52;;;7.78;;
19543;SDS011;9917;51.256;7.152;2023-07-02T02:53:36;18.52;;;7.88;;
19543;SDS011;9917;51.256;7.152;2023-07-02T02:56:02;16.42;;;7.45;;
19543;SDS011;9917;51.256;7.152;2023-07-02T02:58:28;18.23;;;7.15;;
19543;SDS011;9917;51.256;7.152;2023-07-02T03:00:54;17.67;;;8.40;;
19543;SDS011;9917;51.256;7.152;2023-07-02T03:03:21;23.23;;;9.20;;
19543;SDS011;9917;51.256;7.152;2023-07-02T03:05:46;18.35;;;8.02;;
19543;SDS011;9917;51.256;7.152;2023-07-02T03:08:12;21.27;;;8.10;;
19543;SDS011;9917;51.256;7.152;2023-07-02T03:10:38;21.52;;;9.48;;
19543;SDS011;9917;51.256;7.152;2023-07-02T03:13:04;21.00;;;9.27;;
19543;SDS011;9917;51.256;7.152;2023-07-02T03:15:30;18.08;;;8.55;;
19543;SDS011;9917;51.256;7.152;2023-07-02T03:17:56;17.63;;;8.90;;
19543;SDS011;9917;51.256;7.152;2023-07-02T03:20:23;23.02;;;10.70;;
19543;SDS011;9917;51.256;7.152;2023-07-02T03:22:49;18.98;;;9.40;;
19543;SDS011;9917;51.256;7.152;2023-07-02T03:25:15;19.20;;;8.75;;
19543;SDS011;9917;51.256;7.152;2023-07-02T03:27:41;20.10;;;8.32;;
19543;SDS011;9917;51.256;7.152;2023-07-02T03:30:07;20.58;;;8.88;;
19543;SDS011;9917;51.256;7.152;2023-07-02T03:32:33;17.60;;;9.02;;
19543;SDS011;9917;51.256;7.152;2023-07-02T03:34:59;20.27;;;8.82;;
19543;SDS011;9917;51.256;7.152;2023-07-02T03:37:26;21.38;;;10.07;;
19543;SDS011;9917;51.256;7.152;2023-07-02T03:39:51;19.58;;;9.73;;
19543;SDS011;9917;51.256;7.152;2023-07-02T03:42:17;18.80;;;8.90;;
19543;SDS011;9917;51.256;7.152;2023-07-02T03:44:43;18.40;;;8.50;;
19543;SDS011;9917;51.256;7.152;2023-07-02T03:47:08;22.10;;;10.45;;
19543;SDS011;9917;51.256;7.152;2023-07-02T03:49:34;22.23;;;9.00;;
19543;SDS011;9917;51.256;7.152;2023-07-02T03:52:00;25.90;;;10.20;;
19543;SDS011;9917;51.256;7.152;2023-07-02T03:54:27;21.80;;;10.52;;
19543;SDS011;9917;51.256;7.152;2023-07-02T03:56:52;21.25;;;10.43;;
19543;SDS011;9917;51.256;7.152;2023-07-02T03:59:18;22.30;;;10.13;;
19543;SDS011;9917;51.256;7.152;2023-07-02T04:01:44;21.10;;;10.93;;
19543;SDS011;9917;51.256;7.152;2023-07-02T04:04:10;21.15;;;10.40;;
19543;SDS011;9917;51.256;7.152;2023-07-02T04:06:35;21.50;;;9.77;;
19543;SDS011;9917;51.256;7.152;2023-07-02T04:09:01;24.85;;;10.70;;
19543;SDS011;9917;51.256;7.152;2023-07-02T04:11:28;29.02;;;12.48;;
19543;SDS011;9917;51.256;7.152;2023-07-02T04:13:54;22.55;;;11.07;;
19543;SDS011;9917;51.256;7.152;2023-07-02T04:16:20;29.17;;;11.73;;
19543;SDS011;9917;51.256;7.152;2023-07-02T04:18:46;26.40;;;11.57;;
19543;SDS011;9917;51.256;7.152;2023-07-02T04:21:11;23.42;;;11.15;;
19543;SDS011;9917;51.256;7.152;2023-07-02T04:23:37;28.98;;;12.10;;
19543;SDS011;9917;51.256;7.152;2023-07-02T04:26:03;19.52;;;10.57;;
19543;SDS011;9917;51.256;7.152;2023-07-02T04:28:30;23.77;;;11.63;;
19543;SDS011;9917;51.256;7.152;2023-07-02T04:30:56;26.90;;;10.63;;
19543;SDS011;9917;51.256;7.152;2023-07-02T04:33:22;25.00;;;11.75;;
19543;SDS011;9917;51.256;7.152;2023-07-02T04:35:48;27.25;;;11.43;;
19543;SDS011;9917;51.256;7.152;2023-07-02T04:38:14;24.60;;;11.05;;
19543;SDS011;9917;51.256;7.152;2023-07-02T04:40:41;25.58;;;11.63;;
19543;SDS011;9917;51.256;7.152;2023-07-02T04:43:06;26.88;;;12.00;;
19543;SDS011;9917;51.256;7.152;2023-07-02T04:45:34;27.35;;;12.20;;
19543;SDS011;9917;51.256;7.152;2023-07-02T04:47:59;24.90;;;12.15;;
19543;SDS011;9917;51.256;7.152;2023-07-02T04:50:26;20.45;;;11.23;;
19543;SDS011;9917;51.256;7.152;2023-07-02T04:52:52;26.63;;;11.63;;
19543;SDS011;9917;51.256;7.152;2023-07-02T04:55:17;24.63;;;11.70;;
19543;SDS011;9917;51.256;7.152;2023-07-02T04:57:43;27.35;;;12.13;;
19543;SDS011;9917;51.256;7.152;2023-07-02T05:00:10;27.63;;;12.32;;
19543;SDS011;9917;51.256;7.152;2023-07-02T05:02:38;28.98;;;12.27;;
19543;SDS011;9917;51.256;7.152;2023-07-02T05:05:04;27.15;;;12.48;;
19543;SDS011;9917;51.256;7.152;2023-07-02T05:07:30;27.33;;;12.70;;
19543;SDS011;9917;51.256;7.152;2023-07-02T05:09:55;26.30;;;11.40;;
19543;SDS011;9917;51.256;7.152;2023-07-02T05:12:22;27.92;;;11.65;;
19543;SDS011;9917;51.256;7.152;2023-07-02T05:14:48;26.98;;;12.30;;
19543;SDS011;9917;51.256;7.152;2023-07-02T05:17:14;31.20;;;13.10;;
19543;SDS011;9917;51.256;7.152;2023-07-02T05:19:41;30.15;;;12.65;;
19543;SDS011;9917;51.256;7.152;2023-07-02T05:22:07;27.20;;;11.93;;
19543;SDS011;9917;51.256;7.152;2023-07-02T05:24:33;27.83;;;12.80;;
19543;SDS011;9917;51.256;7.152;2023-07-02T05:26:59;26.67;;;12.68;;
19543;SDS011;9917;51.256;7.152;2023-07-02T05:29:24;30.50;;;12.20;;
19543;SDS011;9917;51.256;7.152;2023-07-02T05:31:50;26.17;;;12.57;;
19543;SDS011;9917;51.256;7.152;2023-07-02T05:34:16;28.10;;;12.80;;
19543;SDS011;9917;51.256;7.152;2023-07-02T05:36:43;31.45;;;12.80;;
19543;SDS011;9917;51.256;7.152;2023-07-02T05:39:09;27.27;;;12.70;;
19543;SDS011;9917;51.256;7.152;2023-07-02T05:41:35;31.67;;;13.88;;
19543;SDS011;9917;51.256;7.152;2023-07-02T05:44:00;26.63;;;13.18;;
19543;SDS011;9917;51.256;7.152;2023-07-02T05:46:26;25.90;;;13.88;;
19543;SDS011;9917;51.256;7.152;2023-07-02T05:48:52;28.85;;;13.40;;
19543;SDS011;9917;51.256;7.152;2023-07-02T05:51:19;27.17;;;13.07;;
19543;SDS011;9917;51.256;7.152;2023-07-02T05:53:46;33.97;;;14.65;;
19543;SDS011;9917;51.256;7.152;2023-07-02T05:56:12;27.20;;;13.18;;
19543;SDS011;9917;51.256;7.152;2023-07-02T05:58:38;27.75;;;12.82;;
19543;SDS011;9917;51.256;7.152;2023-07-02T06:01:04;30.40;;;12.98;;
19543;SDS011;9917;51.256;7.152;2023-07-02T06:03:30;38.42;;;13.73;;
19543;SDS011;9917;51.256;7.152;2023-07-02T06:05:56;29.15;;;12.82;;
19543;SDS011;9917;51.256;7.152;2023-07-02T06:08:21;28.00;;;13.63;;
19543;SDS011;9917;51.256;7.152;2023-07-02T06:10:48;36.17;;;14.73;;
19543;SDS011;9917;51.256;7.152;2023-07-02T06:13:15;30.25;;;13.43;;
19543;SDS011;9917;51.256;7.152;2023-07-02T06:15:40;30.55;;;13.25;;
19543;SDS011;9917;51.256;7.152;2023-07-02T06:18:07;29.10;;;13.90;;
19543;SDS011;9917;51.256;7.152;2023-07-02T06:20:33;27.80;;;13.82;;
19543;SDS011;9917;51.256;7.152;2023-07-02T06:22:58;28.10;;;12.98;;
19543;SDS011;9917;51.256;7.152;2023-07-02T06:25:24;30.92;;;13.05;;
19543;SDS011;9917;51.256;7.152;2023-07-02T06:27:52;30.17;;;13.05;;
19543;SDS011;9917;51.256;7.152;2023-07-02T06:30:18;28.48;;;14.77;;
19543;SDS011;9917;51.256;7.152;2023-07-02T06:32:43;28.23;;;13.93;;
19543;SDS011;9917;51.256;7.152;2023-07-02T06:35:09;26.67;;;12.88;;
19543;SDS011;9917;51.256;7.152;2023-07-02T06:37:35;27.42;;;12.65;;
19543;SDS011;9917;51.256;7.152;2023-07-02T06:40:01;31.20;;;13.85;;
19543;SDS011;9917;51.256;7.152;2023-07-02T06:42:27;28.52;;;13.20;;
19543;SDS011;9917;51.256;7.152;2023-07-02T06:44:54;26.55;;;12.70;;
19543;SDS011;9917;51.256;7.152;2023-07-02T06:47:19;27.52;;;12.38;;
19543;SDS011;9917;51.256;7.152;2023-07-02T06:49:45;29.23;;;12.68;;
19543;SDS011;9917;51.256;7.152;2023-07-02T06:52:11;27.45;;;12.20;;
19543;SDS011;9917;51.256;7.152;2023-07-02T06:54:37;24.92;;;11.65;;
19543;SDS011;9917;51.256;7.152;2023-07-02T06:57:03;24.15;;;12.05;;
19543;SDS011;9917;51.256;7.152;2023-07-02T06:59:29;27.25;;;12.77;;
19543;SDS011;9917;51.256;7.152;2023-07-02T07:01:56;26.60;;;11.60;;
19543;SDS011;9917;51.256;7.152;2023-07-02T07:04:22;24.60;;;11.80;;
19543;SDS011;9917;51.256;7.152;2023-07-02T07:06:48;27.35;;;11.85;;
19543;SDS011;9917;51.256;7.152;2023-07-02T07:09:13;29.35;;;11.05;;
19543;SDS011;9917;51.256;7.152;2023-07-02T07:11:42;25.55;;;11.38;;
19543;SDS011;9917;51.256;7.152;2023-07-02T07:14:08;28.63;;;12.07;;
19543;SDS011;9917;51.256;7.152;2023-07-02T07:16:33;26.73;;;10.80;;
19543;SDS011;9917;51.256;7.152;2023-07-02T07:19:00;23.67;;;11.43;;
19543;SDS011;9917;51.256;7.152;2023-07-02T07:21:26;26.20;;;10.85;;
19543;SDS011;9917;51.256;7.152;2023-07-02T07:23:52;25.60;;;10.93;;
19543;SDS011;9917;51.256;7.152;2023-07-02T07:26:18;27.67;;;11.38;;
19543;SDS011;9917;51.256;7.152;2023-07-02T07:28:43;25.00;;;10.38;;
19543;SDS011;9917;51.256;7.152;2023-07-02T07:31:09;24.35;;;10.75;;
19543;SDS011;9917;51.256;7.152;2023-07-02T07:33:35;25.83;;;10.35;;
19543;SDS011;9917;51.256;7.152;2023-07-02T07:36:02;22.92;;;10.82;;
19543;SDS011;9917;51.256;7.152;2023-07-02T07:38:28;27.10;;;11.25;;
19543;SDS011;9917;51.256;7.152;2023-07-02T07:40:54;23.88;;;10.48;;
19543;SDS011;9917;51.256;7.152;2023-07-02T07:43:19;24.75;;;10.32;;
19543;SDS011;9917;51.256;7.152;2023-07-02T07:45:45;24.67;;;11.20;;
19543;SDS011;9917;51.256;7.152;2023-07-02T07:48:11;25.85;;;11.50;;
19543;SDS011;9917;51.256;7.152;2023-07-02T07:50:37;25.70;;;10.77;;
19543;SDS011;9917;51.256;7.152;2023-07-02T07:53:04;25.08;;;11.20;;
19543;SDS011;9917;51.256;7.152;2023-07-02T07:55:29;24.95;;;10.80;;
19543;SDS011;9917;51.256;7.152;2023-07-02T07:57:55;20.60;;;9.43;;
19543;SDS011;9917;51.256;7.152;2023-07-02T08:00:21;22.90;;;10.88;;
19543;SDS011;9917;51.256;7.152;2023-07-02T08:02:47;24.13;;;10.45;;
19543;SDS011;9917;51.256;7.152;2023-07-02T08:05:13;20.17;;;9.27;;
19543;SDS011;9917;51.256;7.152;2023-07-02T08:07:39;20.52;;;10.00;;
19543;SDS011;9917;51.256;7.152;2023-07-02T08:10:06;22.75;;;10.15;;
19543;SDS011;9917;51.256;7.152;2023-07-02T08:12:32;21.48;;;8.75;;
19543;SDS011;9917;51.256;7.152;2023-07-02T08:14:58;23.20;;;9.52;;
19543;SDS011;9917;51.256;7.152;2023-07-02T08:17:24;21.58;;;9.43;;
19543;SDS011;9917;51.256;7.152;2023-07-02T08:19:50;22.98;;;9.77;;
19543;SDS011;9917;51.256;7.152;2023-07-02T08:22:16;26.00;;;9.68;;
19543;SDS011;9917;51.256;7.152;2023-07-02T08:24:42;23.80;;;10.05;;
19543;SDS011;9917;51.256;7.152;2023-07-02T08:27:09;17.77;;;8.90;;
19543;SDS011;9917;51.256;7.152;2023-07-02T08:29:35;16.27;;;8.25;;
19543;SDS011;9917;51.256;7.152;2023-07-02T08:32:00;20.70;;;9.52;;
19543;SDS011;9917;51.256;7.152;2023-07-02T08:34:26;18.77;;;8.93;;
19543;SDS011;9917;51.256;7.152;2023-07-02T08:36:52;21.67;;;8.93;;
19543;SDS011;9917;51.256;7.152;2023-07-02T08:39:17;21.10;;;9.55;;
19543;SDS011;9917;51.256;7.152;2023-07-02T08:41:43;23.25;;;9.77;;
19543;SDS011;9917;51.256;7.152;2023-07-02T08:44:12;22.25;;;9.93;;
19543;SDS011;9917;51.256;7.152;2023-07-02T08:46:38;26.67;;;10.68;;
19543;SDS011;9917;51.256;7.152;2023-07-02T08:49:04;24.30;;;9.98;;
19543;SDS011;9917;51.256;7.152;2023-07-02T08:51:31;22.98;;;10.15;;
19543;SDS011;9917;51.256;7.152;2023-07-02T08:53:57;26.40;;;11.18;;
19543;SDS011;9917;51.256;7.152;2023-07-02T08:56:22;23.10;;;10.75;;
19543;SDS011;9917;51.256;7.152;2023-07-02T08:58:48;26.67;;;11.30;;
19543;SDS011;9917;51.256;7.152;2023-07-02T09:01:15;28.10;;;10.52;;
19543;SDS011;9917;51.256;7.152;2023-07-02T09:03:41;25.85;;;10.98;;
19543;SDS011;9917;51.256;7.152;2023-07-02T09:06:07;22.75;;;10.35;;
19543;SDS011;9917;51.256;7.152;2023-07-02T09:08:34;25.92;;;10.35;;
19543;SDS011;9917;51.256;7.152;2023-07-02T09:11:06;22.38;;;10.02;;
19543;SDS011;9917;51.256;7.152;2023-07-02T09:13:41;25.88;;;10.98;;
19543;SDS011;9917;51.256;7.152;2023-07-02T09:16:08;23.00;;;10.15;;
19543;SDS011;9917;51.256;7.152;2023-07-02T09:18:35;25.38;;;10.52;;
19543;SDS011;9917;51.256;7.152;2023-07-02T09:21:00;25.83;;;10.82;;
19543;SDS011;9917;51.256;7.152;2023-07-02T09:23:33;25.50;;;10.20;;
19543;SDS011;9917;51.256;7.152;2023-07-02T09:25:59;24.30;;;10.80;;
19543;SDS011;9917;51.256;7.152;2023-07-02T09:28:25;26.65;;;10.38;;
19543;SDS011;9917;51.256;7.152;2023-07-02T09:30:51;20.95;;;9.77;;
19543;SDS011;9917;51.256;7.152;2023-07-02T09:33:17;22.77;;;10.05;;
19543;SDS011;9917;51.256;7.152;2023-07-02T09:35:45;27.60;;;11.07;;
19543;SDS011;9917;51.256;7.152;2023-07-02T09:38:10;26.95;;;11.32;;
19543;SDS011;9917;51.256;7.152;2023-07-02T09:40:37;27.48;;;11.75;;
19543;SDS011;9917;51.256;7.152;2023-07-02T09:43:09;21.65;;;9.90;;
19543;SDS011;9917;51.256;7.152;2023-07-02T09:45:35;20.63;;;10.00;;
19543;SDS011;9917;51.256;7.152;2023-07-02T09:48:01;25.05;;;10.88;;
19543;SDS011;9917;51.256;7.152;2023-07-02T09:50:29;25.30;;;10.43;;
19543;SDS011;9917;51.256;7.152;2023-07-02T09:52:57;21.35;;;10.35;;
19543;SDS011;9917;51.256;7.152;2023-07-02T09:55:22;28.23;;;10.63;;
19543;SDS011;9917;51.256;7.152;2023-07-02T09:57:48;23.30;;;10.50;;
19543;SDS011;9917;51.256;7.152;2023-07-02T10:00:14;27.58;;;10.90;;
19543;SDS011;9917;51.256;7.152;2023-07-02T10:02:41;25.52;;;10.95;;
19543;SDS011;9917;51.256;7.152;2023-07-02T10:05:06;27.55;;;11.63;;
19543;SDS011;9917;51.256;7.152;2023-07-02T10:07:32;28.92;;;12.45;;
19543;SDS011;9917;51.256;7.152;2023-07-02T10:10:01;26.50;;;11.32;;
19543;SDS011;9917;51.256;7.152;2023-07-02T10:12:27;29.60;;;12.32;;
19543;SDS011;9917;51.256;7.152;2023-07-02T10:14:54;28.75;;;11.75;;
19543;SDS011;9917;51.256;7.152;2023-07-02T10:17:24;25.70;;;11.13;;
19543;SDS011;9917;51.256;7.152;2023-07-02T10:19:51;23.98;;;11.38;;
19543;SDS011;9917;51.256;7.152;2023-07-02T10:22:18;27.17;;;11.68;;
19543;SDS011;9917;51.256;7.152;2023-07-02T10:24:50;26.85;;;11.57;;
19543;SDS011;9917;51.256;7.152;2023-07-02T10:27:17;29.42;;;12.13;;
19543;SDS011;9917;51.256;7.152;2023-07-02T10:29:48;29.60;;;12.85;;
19543;SDS011;9917;51.256;7.152;2023-07-02T10:32:25;27.60;;;11.85;;
19543;SDS011;9917;51.256;7.152;2023-07-02T10:34:51;25.60;;;11.93;;
19543;SDS011;9917;51.256;7.152;2023-07-02T10:37:17;24.38;;;11.32;;
19543;SDS011;9917;51.256;7.152;2023-07-02T10:39:43;21.70;;;11.38;;
19543;SDS011;9917;51.256;7.152;2023-07-02T10:42:09;24.73;;;12.30;;
19543;SDS011;9917;51.256;7.152;2023-07-02T10:44:46;26.15;;;12.50;;
19543;SDS011;9917;51.256;7.152;2023-07-02T10:47:12;23.58;;;12.63;;
19543;SDS011;9917;51.256;7.152;2023-07-02T10:49:38;34.33;;;12.23;;
19543;SDS011;9917;51.256;7.152;2023-07-02T10:52:04;25.67;;;11.63;;
19543;SDS011;9917;51.256;7.152;2023-07-02T10:54:41;26.38;;;10.90;;
19543;SDS011;9917;51.256;7.152;2023-07-02T10:57:07;24.42;;;10.77;;
19543;SDS011;9917;51.256;7.152;2023-07-02T10:59:32;24.45;;;10.35;;
19543;SDS011;9917;51.256;7.152;2023-07-02T11:02:00;19.77;;;9.52;;
19543;SDS011;9917;51.256;7.152;2023-07-02T11:04:26;22.77;;;9.18;;
19543;SDS011;9917;51.256;7.152;2023-07-02T11:06:51;21.92;;;8.80;;
19543;SDS011;9917;51.256;7.152;2023-07-02T11:09:17;21.27;;;8.90;;
19543;SDS011;9917;51.256;7.152;2023-07-02T11:11:49;20.15;;;9.70;;
19543;SDS011;9917;51.256;7.152;2023-07-02T11:14:25;15.88;;;7.78;;
19543;SDS011;9917;51.256;7.152;2023-07-02T11:16:53;13.77;;;6.78;;
19543;SDS011;9917;51.256;7.152;2023-07-02T11:19:21;15.60;;;6.82;;
19543;SDS011;9917;51.256;7.152;2023-07-02T11:21:50;17.38;;;6.80;;
19543;SDS011;9917;51.256;7.152;2023-07-02T11:24:25;13.90;;;6.45;;
19543;SDS011;9917;51.256;7.152;2023-07-02T11:26:52;18.08;;;6.65;;
19543;SDS011;9917;51.256;7.152;2023-07-02T11:29:18;16.80;;;8.07;;
19543;SDS011;9917;51.256;7.152;2023-07-02T11:31:44;15.07;;;7.30;;
19543;SDS011;9917;51.256;7.152;2023-07-02T11:34:12;15.85;;;6.18;;
19543;SDS011;9917;51.256;7.152;2023-07-02T11:36:39;16.73;;;7.47;;
19543;SDS011;9917;51.256;7.152;2023-07-02T11:39:05;15.38;;;6.32;;
19543;SDS011;9917;51.256;7.152;2023-07-02T11:41:36;15.27;;;6.25;;
19543;SDS011;9917;51.256;7.152;2023-07-02T11:44:02;17.35;;;6.35;;
19543;SDS011;9917;51.256;7.152;2023-07-02T11:46:27;14.13;;;6.22;;
19543;SDS011;9917;51.256;7.152;2023-07-02T11:48:53;13.32;;;6.07;;
19543;SDS011;9917;51.256;7.152;2023-07-02T11:51:19;13.68;;;5.97;;
19543;SDS011;9917;51.256;7.152;2023-07-02T11:53:46;21.27;;;6.50;;
19543;SDS011;9917;51.256;7.152;2023-07-02T11:56:11;16.70;;;6.57;;
19543;SDS011;9917;51.256;7.152;2023-07-02T11:58:37;15.00;;;5.95;;
19543;SDS011;9917;51.256;7.152;2023-07-02T12:01:03;15.15;;;5.82;;
19543;SDS011;9917;51.256;7.152;2023-07-02T12:03:28;13.82;;;7.03;;
19543;SDS011;9917;51.256;7.152;2023-07-02T12:05:54;16.58;;;6.85;;
19543;SDS011;9917;51.256;7.152;2023-07-02T12:08:20;13.98;;;5.45;;
19543;SDS011;9917;51.256;7.152;2023-07-02T12:10:47;14.93;;;5.80;;
19543;SDS011;9917;51.256;7.152;2023-07-02T12:13:13;12.75;;;5.43;;
19543;SDS011;9917;51.256;7.152;2023-07-02T12:15:39;13.82;;;5.78;;
19543;SDS011;9917;51.256;7.152;2023-07-02T12:18:05;12.48;;;5.22;;
19543;SDS011;9917;51.256;7.152;2023-07-02T12:20:31;12.10;;;4.72;;
19543;SDS011;9917;51.256;7.152;2023-07-02T12:22:57;10.55;;;4.85;;
19543;SDS011;9917;51.256;7.152;2023-07-02T12:25:22;12.73;;;5.32;;
19543;SDS011;9917;51.256;7.152;2023-07-02T12:27:50;15.55;;;5.78;;
19543;SDS011;9917;51.256;7.152;2023-07-02T12:30:15;13.60;;;5.88;;
19543;SDS011;9917;51.256;7.152;2023-07-02T12:32:41;17.33;;;6.07;;
19543;SDS011;9917;51.256;7.152;2023-07-02T12:35:07;14.68;;;6.25;;
19543;SDS011;9917;51.256;7.152;2023-07-02T12:37:33;16.67;;;6.35;;
19543;SDS011;9917;51.256;7.152;2023-07-02T12:39:59;15.43;;;5.72;;
19543;SDS011;9917;51.256;7.152;2023-07-02T12:42:24;15.32;;;5.78;;
19543;SDS011;9917;51.256;7.152;2023-07-02T12:44:52;11.73;;;5.75;;
19543;SDS011;9917;51.256;7.152;2023-07-02T12:47:17;14.30;;;6.30;;
19543;SDS011;9917;51.256;7.152;2023-07-02T12:49:43;16.00;;;6.88;;
19543;SDS011;9917;51.256;7.152;2023-07-02T12:52:09;12.18;;;6.35;;
19543;SDS011;9917;51.256;7.152;2023-07-02T12:54:34;12.80;;;6.30;;
19543;SDS011;9917;51.256;7.152;2023-07-02T12:57:00;14.48;;;6.18;;
19543;SDS011;9917;51.256;7.152;2023-07-02T12:59:26;13.82;;;6.70;;
19543;SDS011;9917;51.256;7.152;2023-07-02T13:01:53;14.50;;;6.05;;
19543;SDS011;9917;51.256;7.152;2023-07-02T13:04:19;13.80;;;6.47;;
19543;SDS011;9917;51.256;7.152;2023-07-02T13:06:44;14.13;;;6.65;;
19543;SDS011;9917;51.256;7.152;2023-07-02T13:09:10;15.40;;;7.93;;
19543;SDS011;9917;51.256;7.152;2023-07-02T13:11:36;17.33;;;6.60;;
19543;SDS011;9917;51.256;7.152;2023-07-02T13:14:01;16.52;;;6.40;;
19543;SDS011;9917;51.256;7.152;2023-07-02T13:16:27;14.70;;;5.90;;
19543;SDS011;9917;51.256;7.152;2023-07-02T13:18:55;14.57;;;6.50;;
19543;SDS011;9917;51.256;7.152;2023-07-02T13:21:21;13.65;;;6.35;;
19543;SDS011;9917;51.256;7.152;2023-07-02T13:23:47;13.75;;;5.95;;
19543;SDS011;9917;51.256;7.152;2023-07-02T13:26:13;11.77;;;6.10;;
19543;SDS011;9917;51.256;7.152;2023-07-02T13:28:39;12.45;;;6.05;;
19543;SDS011;9917;51.256;7.152;2023-07-02T13:31:04;17.48;;;5.85;;
19543;SDS011;9917;51.256;7.152;2023-07-02T13:33:30;15.48;;;6.05;;
19543;SDS011;9917;51.256;7.152;2023-07-02T13:35:57;12.55;;;6.03;;
19543;SDS011;9917;51.256;7.152;2023-07-02T13:38:23;13.00;;;5.70;;
19543;SDS011;9917;51.256;7.152;2023-07-02T13:40:49;17.00;;;6.18;;
19543;SDS011;9917;51.256;7.152;2023-07-02T13:43:14;15.02;;;7.60;;
19543;SDS011;9917;51.256;7.152;2023-07-02T13:45:40;17.85;;;6.93;;
19543;SDS011;9917;51.256;7.152;2023-07-02T13:48:06;13.10;;;5.95;;
19543;SDS011;9917;51.256;7.152;2023-07-02T13:50:32;16.40;;;6.68;;
19543;SDS011;9917;51.256;7.152;2023-07-02T13:52:59;15.23;;;6.00;;
19543;SDS011;9917;51.256;7.152;2023-07-02T13:55:25;13.98;;;6.50;;
19543;SDS011;9917;51.256;7.152;2023-07-02T13:57:50;16.50;;;6.35;;
19543;SDS011;9917;51.256;7.152;2023-07-02T14:00:18;14.00;;;5.68;;
19543;SDS011;9917;51.256;7.152;2023-07-02T14:02:44;13.52;;;5.85;;
19543;SDS011;9917;51.256;7.152;2023-07-02T14:05:10;14.73;;;6.35;;
19543;SDS011;9917;51.256;7.152;2023-07-02T14:07:36;15.98;;;6.40;;
19543;SDS011;9917;51.256;7.152;2023-07-02T14:10:02;16.40;;;6.50;;
19543;SDS011;9917;51.256;7.152;2023-07-02T14:12:28;14.93;;;5.97;;
19543;SDS011;9917;51.256;7.152;2023-07-02T14:14:54;15.23;;;6.57;;
19543;SDS011;9917;51.256;7.152;2023-07-02T14:17:21;11.70;;;5.15;;
19543;SDS011;9917;51.256;7.152;2023-07-02T14:19:46;15.98;;;6.07;;
19543;SDS011;9917;51.256;7.152;2023-07-02T14:22:12;13.30;;;5.85;;
19543;SDS011;9917;51.256;7.152;2023-07-02T14:24:38;16.95;;;5.82;;
19543;SDS011;9917;51.256;7.152;2023-07-02T14:27:04;14.52;;;6.32;;
19543;SDS011;9917;51.256;7.152;2023-07-02T14:29:30;16.45;;;6.30;;
19543;SDS011;9917;51.256;7.152;2023-07-02T14:31:56;14.55;;;6.40;;
19543;SDS011;9917;51.256;7.152;2023-07-02T14:34:23;14.90;;;6.35;;
19543;SDS011;9917;51.256;7.152;2023-07-02T14:36:48;12.95;;;6.00;;